Time;durP1;ratioP1;P1;durP2;ratioP2;P2;SDS_P1;SDS_P2;PMS_P1;PMS_P2;Temp;Humidity;BMP_temperature;BMP_pressure;BME280_temperature;BME280_humidity;BME280_pressure;Samples;Min_cycle;Max_cycle;Signal;HPM_P1;HPM_P2
2021/10/14 00:00:44;;;;;;;;;55.50;47.00;;;;;;;;5119220;28;8787;-76
2021/10/14 00:03:09;;;;;;;;;59.00;48.50;;;;;;;;5119095;28;8944;-77
2021/10/14 00:05:35;;;;;;;;;57.50;47.25;;;;;;;;5117418;28;8806;-76
2021/10/14 00:08:00;;;;;;;;;59.00;47.25;;;;;;;;5117428;28;8932;-79
2021/10/14 00:10:26;;;;;;;;;49.50;41.00;;;;;;;;5118949;28;8792;-79
2021/10/14 00:12:51;;;;;;;;;47.75;39.50;;;;;;;;5117532;28;9597;-79
2021/10/14 00:15:17;;;;;;;;;45.00;38.75;;;;;;;;5118722;28;11603;-78
2021/10/14 00:17:42;;;;;;;;;45.75;39.25;;;;;;;;5118804;28;9647;-79
2021/10/14 00:20:07;;;;;;;;;48.50;40.00;;;;;;;;5118584;28;8787;-76
2021/10/14 00:22:33;;;;;;;;;53.00;43.75;;;;;;;;5118642;27;8803;-75
2021/10/14 00:24:58;;;;;;;;;50.50;42.75;;;;;;;;5118693;28;8799;-76
2021/10/14 00:27:23;;;;;;;;;52.00;43.25;;;;;;;;5118592;27;8846;-79
2021/10/14 00:29:49;;;;;;;;;52.75;44.00;;;;;;;;5123092;27;8812;-76
2021/10/14 00:32:14;;;;;;;;;49.00;41.25;;;;;;;;5139294;27;8840;-76
2021/10/14 00:34:39;;;;;;;;;46.25;40.50;;;;;;;;5139121;27;8784;-78
2021/10/14 00:37:04;;;;;;;;;48.50;41.25;;;;;;;;5137688;27;8812;-79
2021/10/14 00:39:30;;;;;;;;;49.00;39.50;;;;;;;;5137664;27;8865;-79
2021/10/14 00:41:55;;;;;;;;;50.75;42.00;;;;;;;;5138825;27;8908;-79
2021/10/14 00:44:20;;;;;;;;;50.75;42.75;;;;;;;;5137445;27;8823;-79
2021/10/14 00:46:52;;;;;;;;;28.75;28.00;;;;;;;;5138991;27;8878;-79
2021/10/14 00:49:18;;;;;;;;;35.50;34.25;;;;;;;;5138737;27;8828;-76
2021/10/14 00:51:43;;;;;;;;;41.25;37.50;;;;;;;;5138541;27;10392;-76
2021/10/14 00:54:08;;;;;;;;;40.75;35.25;;;;;;;;5138949;27;8862;-78
2021/10/14 00:56:34;;;;;;;;;40.00;35.25;;;;;;;;5137428;27;8903;-76
2021/10/14 00:58:59;;;;;;;;;37.75;34.75;;;;;;;;5138924;27;8836;-76
2021/10/14 01:01:25;;;;;;;;;38.00;32.25;;;;;;;;5138888;27;8777;-76
2021/10/14 01:03:50;;;;;;;;;32.50;31.50;;;;;;;;5137425;27;8896;-75
2021/10/14 01:06:15;;;;;;;;;30.75;30.75;;;;;;;;5138374;27;9627;-78
2021/10/14 01:08:40;;;;;;;;;34.25;32.25;;;;;;;;5138428;27;8845;-78
2021/10/14 01:11:06;;;;;;;;;34.00;32.25;;;;;;;;5137132;27;8812;-79
2021/10/14 01:13:31;;;;;;;;;31.75;28.50;;;;;;;;5138521;27;8803;-79
2021/10/14 01:15:56;;;;;;;;;31.50;31.25;;;;;;;;5138423;27;8870;-78
2021/10/14 01:18:21;;;;;;;;;31.75;29.75;;;;;;;;5138586;27;8906;-75
2021/10/14 01:20:47;;;;;;;;;31.75;27.25;;;;;;;;5136910;27;8907;-78
2021/10/14 01:23:12;;;;;;;;;22.33;20.33;;;;;;;;5138385;27;8811;-79
2021/10/14 01:25:38;;;;;;;;;21.33;21.33;;;;;;;;5138188;27;8877;-79
2021/10/14 01:28:03;;;;;;;;;25.00;23.00;;;;;;;;5136835;27;8925;-76
2021/10/14 01:30:28;;;;;;;;;21.67;19.67;;;;;;;;5128064;27;8857;-78
2021/10/14 01:32:53;;;;;;;;;24.33;23.00;;;;;;;;5117546;27;8794;-76
2021/10/14 01:35:19;;;;;;;;;27.00;22.33;;;;;;;;5116187;28;9526;-76
2021/10/14 01:37:45;;;;;;;;;24.00;20.67;;;;;;;;5117418;27;8795;-75
2021/10/14 01:40:10;;;;;;;;;25.00;22.00;;;;;;;;5117472;27;8771;-75
2021/10/14 01:42:36;;;;;;;;;24.67;23.00;;;;;;;;5117491;28;9575;-76
2021/10/14 01:45:02;;;;;;;;;27.67;26.00;;;;;;;;5117540;28;8823;-76
2021/10/14 01:47:29;;;;;;;;;21.00;19.67;;;;;;;;5117420;27;8763;-75
2021/10/14 01:49:54;;;;;;;;;24.67;24.67;;;;;;;;5115744;28;9408;-78
2021/10/14 01:52:19;;;;;;;;;24.00;21.67;;;;;;;;5115708;28;9507;-78
2021/10/14 01:54:44;;;;;;;;;22.33;20.00;;;;;;;;5117099;28;8899;-78
2021/10/14 01:57:10;;;;;;;;;22.33;20.67;;;;;;;;5115831;28;8807;-78
2021/10/14 01:59:35;;;;;;;;;22.00;21.67;;;;;;;;5117108;28;8811;-78
2021/10/14 02:02:00;;;;;;;;;26.00;25.33;;;;;;;;5117303;28;8888;-78
2021/10/14 02:04:25;;;;;;;;;30.00;25.67;;;;;;;;5116979;28;8836;-78
2021/10/14 02:06:51;;;;;;;;;31.67;28.33;;;;;;;;5116292;28;8807;-78
2021/10/14 02:09:16;;;;;;;;;24.00;23.33;;;;;;;;5117044;28;8837;-76
2021/10/14 02:11:41;;;;;;;;;28.50;28.00;;;;;;;;5115530;28;8850;-78
2021/10/14 02:14:06;;;;;;;;;26.00;23.33;;;;;;;;5117092;28;8779;-78
2021/10/14 02:16:32;;;;;;;;;29.00;24.00;;;;;;;;5115797;28;8831;-78
2021/10/14 02:18:57;;;;;;;;;29.33;24.33;;;;;;;;5117087;27;8775;-76
2021/10/14 02:21:22;;;;;;;;;28.25;27.00;;;;;;;;5115396;28;8822;-76
2021/10/14 02:23:47;;;;;;;;;23.25;21.75;;;;;;;;5116934;28;9526;-76
2021/10/14 02:26:13;;;;;;;;;28.25;28.00;;;;;;;;5116785;28;9374;-75
2021/10/14 02:28:38;;;;;;;;;24.67;20.67;;;;;;;;5116808;28;8819;-75
2021/10/14 02:31:03;;;;;;;;;20.00;18.25;;;;;;;;5131689;27;8888;-75
2021/10/14 02:33:28;;;;;;;;;23.00;21.67;;;;;;;;5135955;27;8792;-76
2021/10/14 02:35:53;;;;;;;;;20.33;20.33;;;;;;;;5137135;27;9625;-79
2021/10/14 02:38:19;;;;;;;;;20.33;19.67;;;;;;;;5135751;27;8820;-78
2021/10/14 02:40:44;;;;;;;;;23.00;20.67;;;;;;;;5135730;27;8820;-79
2021/10/14 02:43:09;;;;;;;;;21.67;20.67;;;;;;;;5135854;27;8834;-78
2021/10/14 02:45:35;;;;;;;;;25.33;23.33;;;;;;;;5137237;27;8792;-78
2021/10/14 02:48:00;;;;;;;;;25.00;23.00;;;;;;;;5137096;27;8835;-76
2021/10/14 02:50:25;;;;;;;;;28.25;25.75;;;;;;;;5137002;27;8784;-75
2021/10/14 02:52:51;;;;;;;;;29.25;28.50;;;;;;;;5137125;27;8808;-75
2021/10/14 02:55:16;;;;;;;;;34.75;33.25;;;;;;;;5135705;27;8808;-76
2021/10/14 02:57:42;;;;;;;;;31.25;31.00;;;;;;;;5135712;27;8848;-76
2021/10/14 03:00:07;;;;;;;;;31.50;29.25;;;;;;;;5135687;27;8808;-75
2021/10/14 03:02:33;;;;;;;;;29.50;26.75;;;;;;;;5137170;27;8800;-75
2021/10/14 03:04:58;;;;;;;;;21.50;21.50;;;;;;;;5135316;27;8804;-78
2021/10/14 03:07:23;;;;;;;;;27.00;24.50;;;;;;;;5135371;27;9617;-78
2021/10/14 03:09:49;;;;;;;;;23.50;22.00;;;;;;;;5136936;27;9617;-78
2021/10/14 03:12:14;;;;;;;;;22.75;21.00;;;;;;;;5136849;27;8823;-78
2021/10/14 03:14:39;;;;;;;;;27.50;24.25;;;;;;;;5136835;27;8829;-77
2021/10/14 03:17:05;;;;;;;;;31.25;27.00;;;;;;;;5135426;27;8879;-78
2021/10/14 03:19:30;;;;;;;;;28.25;25.00;;;;;;;;5136466;27;8809;-76
2021/10/14 03:21:57;;;;;;;;;22.75;22.75;;;;;;;;5138902;27;8823;-76
2021/10/14 03:24:22;;;;;;;;;25.00;24.00;;;;;;;;5138665;27;9633;-76
2021/10/14 03:26:47;;;;;;;;;26.00;25.50;;;;;;;;5140334;27;8861;-75
2021/10/14 03:29:13;;;;;;;;;23.25;22.75;;;;;;;;5138909;27;8831;-76
2021/10/14 03:31:38;;;;;;;;;26.25;24.50;;;;;;;;5118611;27;8846;-75
2021/10/14 03:34:03;;;;;;;;;20.00;18.33;;;;;;;;5119487;28;8786;-76
2021/10/14 03:36:29;;;;;;;;;19.75;19.00;;;;;;;;5117906;28;8795;-78
2021/10/14 03:38:54;;;;;;;;;20.33;20.33;;;;;;;;5118165;28;8818;-78
2021/10/14 03:41:19;;;;;;;;;26.50;21.00;;;;;;;;5119381;28;8818;-78
2021/10/14 03:43:45;;;;;;;;;22.75;22.25;;;;;;;;5117958;28;8839;-78
2021/10/14 03:46:10;;;;;;;;;25.00;21.25;;;;;;;;5118037;28;9685;-78
2021/10/14 03:48:35;;;;;;;;;27.75;24.75;;;;;;;;5119310;27;8826;-77
2021/10/14 03:51:01;;;;;;;;;29.00;28.75;;;;;;;;5118957;28;8799;-75
2021/10/14 03:53:26;;;;;;;;;26.25;21.75;;;;;;;;5117888;28;8831;-76
2021/10/14 03:55:51;;;;;;;;;29.25;27.75;;;;;;;;5117735;28;8830;-76
2021/10/14 03:58:17;;;;;;;;;24.67;23.00;;;;;;;;5117940;28;8906;-76
2021/10/14 04:00:42;;;;;;;;;27.00;22.75;;;;;;;;5119167;28;8822;-76
2021/10/14 04:03:08;;;;;;;;;24.50;23.25;;;;;;;;5117724;28;8848;-76
2021/10/14 04:05:33;;;;;;;;;29.00;23.33;;;;;;;;5117471;28;8807;-77
2021/10/14 04:07:58;;;;;;;;;27.00;24.33;;;;;;;;5118708;28;8903;-78
2021/10/14 04:10:24;;;;;;;;;22.00;22.00;;;;;;;;5119049;28;8906;-77
2021/10/14 04:12:49;;;;;;;;;25.25;23.50;;;;;;;;5117491;28;8819;-78
2021/10/14 04:15:16;;;;;;;;;25.00;23.25;;;;;;;;5119064;28;8836;-77
2021/10/14 04:17:41;;;;;;;;;23.75;23.00;;;;;;;;5118852;28;8864;-78
2021/10/14 04:20:06;;;;;;;;;26.33;22.67;;;;;;;;5118706;28;9638;-75
2021/10/14 04:22:32;;;;;;;;;25.00;22.00;;;;;;;;5118827;28;8807;-74
2021/10/14 04:24:57;;;;;;;;;25.00;25.00;;;;;;;;5118746;27;8898;-74
2021/10/14 04:27:22;;;;;;;;;22.75;22.75;;;;;;;;5117275;28;8811;-75
2021/10/14 04:29:48;;;;;;;;;20.33;20.33;;;;;;;;5120963;27;8813;-75
2021/10/14 04:32:13;;;;;;;;;21.50;20.25;;;;;;;;5139278;27;9429;-75
2021/10/14 04:34:38;;;;;;;;;28.00;23.25;;;;;;;;5139035;27;8823;-76
2021/10/14 04:37:07;;;;;;;;;21.75;20.50;;;;;;;;5137715;27;8827;-77
2021/10/14 04:39:36;;;;;;;;;29.33;26.00;;;;;;;;5139105;27;8780;-77
2021/10/14 04:42:02;;;;;;;;;28.50;23.50;;;;;;;;5138860;27;9344;-77
2021/10/14 04:44:27;;;;;;;;;22.25;21.75;;;;;;;;5138973;27;9636;-78
2021/10/14 04:46:53;;;;;;;;;21.00;20.50;;;;;;;;5138973;27;9717;-77
2021/10/14 04:49:18;;;;;;;;;21.25;21.00;;;;;;;;5138917;27;9539;-76
2021/10/14 04:51:43;;;;;;;;;22.00;20.75;;;;;;;;5137108;27;8893;-76
2021/10/14 04:54:09;;;;;;;;;19.50;19.50;;;;;;;;5137463;27;8824;-76
2021/10/14 04:56:34;;;;;;;;;25.67;22.33;;;;;;;;5137499;27;8830;-76
2021/10/14 04:58:59;;;;;;;;;21.00;19.33;;;;;;;;5137397;27;8824;-76
2021/10/14 05:01:25;;;;;;;;;22.00;20.75;;;;;;;;5137456;27;8804;-76
2021/10/14 05:03:50;;;;;;;;;23.00;22.00;;;;;;;;5138759;27;8781;-74
2021/10/14 05:06:15;;;;;;;;;19.33;19.33;;;;;;;;5137089;27;8889;-74
2021/10/14 05:08:41;;;;;;;;;22.25;19.75;;;;;;;;5137141;27;8885;-74
2021/10/14 05:11:10;;;;;;;;;21.67;18.33;;;;;;;;5138761;27;8903;-74
2021/10/14 05:13:35;;;;;;;;;24.75;24.25;;;;;;;;5137121;27;8799;-74
2021/10/14 05:16:01;;;;;;;;;30.50;29.50;;;;;;;;5137252;27;9731;-74
2021/10/14 05:18:27;;;;;;;;;26.25;24.00;;;;;;;;5137166;27;8803;-78
2021/10/14 05:20:52;;;;;;;;;25.25;23.00;;;;;;;;5138224;27;8792;-77
2021/10/14 05:23:17;;;;;;;;;22.75;22.50;;;;;;;;5138402;27;8824;-77
2021/10/14 05:25:43;;;;;;;;;31.75;30.75;;;;;;;;5138375;27;8818;-77
2021/10/14 05:28:08;;;;;;;;;25.00;23.25;;;;;;;;5138699;27;8820;-78
2021/10/14 05:30:33;;;;;;;;;26.25;24.75;;;;;;;;5127534;27;8841;-77
2021/10/14 05:32:59;;;;;;;;;24.50;20.75;;;;;;;;5117612;28;8775;-76
2021/10/14 05:35:24;;;;;;;;;27.50;24.25;;;;;;;;5117604;27;8783;-75
2021/10/14 05:37:49;;;;;;;;;24.25;20.25;;;;;;;;5117521;28;8799;-75
2021/10/14 05:40:14;;;;;;;;;23.25;23.25;;;;;;;;5117589;28;8787;-75
2021/10/14 05:42:40;;;;;;;;;23.00;20.00;;;;;;;;5116618;28;8875;-75
2021/10/14 05:45:05;;;;;;;;;29.75;25.00;;;;;;;;5117726;28;8833;-75
2021/10/14 05:47:30;;;;;;;;;22.00;20.75;;;;;;;;5117391;27;8904;-75
2021/10/14 05:49:56;;;;;;;;;30.25;27.50;;;;;;;;5118023;28;8815;-74
2021/10/14 05:52:21;;;;;;;;;30.00;27.75;;;;;;;;5117077;28;8816;-75
2021/10/14 05:54:46;;;;;;;;;31.00;29.25;;;;;;;;5118374;28;8783;-75
2021/10/14 05:57:12;;;;;;;;;23.00;20.00;;;;;;;;5118585;28;8925;-75
2021/10/14 05:59:37;;;;;;;;;31.50;28.25;;;;;;;;5120767;28;8810;-75
2021/10/14 06:02:02;;;;;;;;;32.50;29.75;;;;;;;;5120694;28;8835;-75
2021/10/14 06:04:28;;;;;;;;;29.75;28.00;;;;;;;;5121239;27;8801;-75
2021/10/14 06:06:53;;;;;;;;;30.75;29.50;;;;;;;;5117830;28;8811;-75
2021/10/14 06:09:18;;;;;;;;;31.00;29.25;;;;;;;;5117714;28;8818;-75
2021/10/14 06:11:43;;;;;;;;;23.75;22.75;;;;;;;;5120077;28;8830;-75
2021/10/14 06:14:09;;;;;;;;;31.00;28.75;;;;;;;;5118979;28;8815;-74
2021/10/14 06:16:34;;;;;;;;;32.25;29.00;;;;;;;;5120409;27;8795;-75
2021/10/14 06:19:00;;;;;;;;;31.75;30.75;;;;;;;;5125013;28;8859;-75
2021/10/14 06:21:25;;;;;;;;;37.00;33.00;;;;;;;;5122931;28;8827;-75
2021/10/14 06:23:50;;;;;;;;;21.25;18.75;;;;;;;;5120108;28;8846;-74
2021/10/14 06:26:16;;;;;;;;;32.75;30.25;;;;;;;;5122888;28;8878;-75
2021/10/14 06:28:41;;;;;;;;;29.50;28.50;;;;;;;;5120513;27;8831;-75
2021/10/14 06:31:06;;;;;;;;;35.75;29.25;;;;;;;;5137785;27;8862;-79
2021/10/14 06:33:34;;;;;;;;;35.00;31.75;;;;;;;;5142761;27;8808;-79
2021/10/14 06:35:59;;;;;;;;;30.50;29.00;;;;;;;;5139346;27;8792;-79
2021/10/14 06:38:24;;;;;;;;;28.50;28.25;;;;;;;;5143250;27;10127;-77
2021/10/14 06:40:50;;;;;;;;;32.00;32.00;;;;;;;;5142353;27;8804;-79
2021/10/14 06:43:15;;;;;;;;;23.50;21.75;;;;;;;;5140431;27;8817;-79
2021/10/14 06:45:41;;;;;;;;;34.75;31.00;;;;;;;;5140546;27;8820;-76
2021/10/14 06:48:06;;;;;;;;;31.50;30.00;;;;;;;;5145756;27;8836;-77
2021/10/14 06:50:34;;;;;;;;;32.50;31.25;;;;;;;;5144145;27;8812;-76
2021/10/14 06:53:08;;;;;;;;;33.50;28.25;;;;;;;;5140792;27;8729;-77
2021/10/14 06:55:35;;;;;;;;;32.25;31.50;;;;;;;;5144255;27;9886;-76
2021/10/14 06:58:01;;;;;;;;;36.50;33.25;;;;;;;;5141551;27;10137;-79
2021/10/14 07:00:28;;;;;;;;;33.00;32.00;;;;;;;;5143134;27;10391;-79
2021/10/14 07:02:54;;;;;;;;;30.25;27.50;;;;;;;;5142827;27;8757;-80
2021/10/14 07:05:19;;;;;;;;;28.00;25.25;;;;;;;;5142571;27;10119;-79
2021/10/14 07:07:44;;;;;;;;;32.75;26.75;;;;;;;;5142498;27;9563;-79
2021/10/14 07:10:10;;;;;;;;;24.75;23.50;;;;;;;;5142172;27;8914;-77
2021/10/14 07:12:37;;;;;;;;;32.00;31.75;;;;;;;;5139112;27;8824;-75
2021/10/14 07:15:03;;;;;;;;;31.00;30.50;;;;;;;;5139178;27;8792;-75
2021/10/14 07:17:28;;;;;;;;;38.25;33.25;;;;;;;;5140612;27;9662;-75
2021/10/14 07:19:53;;;;;;;;;52.00;43.50;;;;;;;;5140874;27;8804;-76
2021/10/14 07:22:18;;;;;;;;;55.00;46.25;;;;;;;;5138985;27;8852;-76
2021/10/14 07:24:44;;;;;;;;;51.00;42.50;;;;;;;;5138878;27;8904;-76
2021/10/14 07:27:09;;;;;;;;;46.50;39.25;;;;;;;;5140004;27;8819;-75
2021/10/14 07:29:34;;;;;;;;;52.00;43.00;;;;;;;;5137721;27;8859;-75
2021/10/14 07:32:00;;;;;;;;;60.25;50.00;;;;;;;;5118365;28;8835;-76
2021/10/14 07:34:25;;;;;;;;;56.00;47.50;;;;;;;;5119332;27;9557;-77
2021/10/14 07:36:51;;;;;;;;;66.00;52.50;;;;;;;;5118195;28;8831;-75
2021/10/14 07:39:17;;;;;;;;;58.75;48.00;;;;;;;;5120519;28;8883;-77
2021/10/14 07:41:42;;;;;;;;;61.25;49.50;;;;;;;;5119235;28;8863;-79
2021/10/14 07:44:07;;;;;;;;;58.50;47.75;;;;;;;;5119504;28;8807;-78
2021/10/14 07:46:32;;;;;;;;;59.25;45.75;;;;;;;;5117845;28;8842;-77
2021/10/14 07:49:00;;;;;;;;;57.75;45.75;;;;;;;;5119006;28;8829;-79
2021/10/14 07:51:25;;;;;;;;;56.75;46.00;;;;;;;;5117678;28;9787;-78
2021/10/14 07:53:50;;;;;;;;;53.25;43.25;;;;;;;;5118282;28;11183;-76
2021/10/14 07:56:15;;;;;;;;;52.25;44.25;;;;;;;;5117256;28;9213;-77
2021/10/14 07:58:41;;;;;;;;;51.00;42.25;;;;;;;;5117726;28;8884;-78
2021/10/14 08:01:10;;;;;;;;;55.25;44.25;;;;;;;;5119118;28;8787;-76
2021/10/14 08:03:36;;;;;;;;;52.25;43.25;;;;;;;;5118661;27;8799;-77
2021/10/14 08:06:01;;;;;;;;;56.00;44.50;;;;;;;;5117419;28;10706;-75
2021/10/14 08:08:26;;;;;;;;;51.75;43.00;;;;;;;;5118761;28;8831;-76
2021/10/14 08:10:51;;;;;;;;;50.00;42.25;;;;;;;;5117363;28;8830;-75
2021/10/14 08:13:17;;;;;;;;;49.25;41.25;;;;;;;;5117606;28;8813;-78
2021/10/14 08:15:49;;;;;;;;;52.25;41.75;;;;;;;;5124006;28;8836;-78
2021/10/14 08:18:15;;;;;;;;;45.50;38.75;;;;;;;;5120714;28;8791;-77
2021/10/14 08:20:40;;;;;;;;;44.50;38.25;;;;;;;;5117466;27;10494;-77
2021/10/14 08:23:06;;;;;;;;;47.25;38.50;;;;;;;;5116515;28;8822;-79
2021/10/14 08:25:32;;;;;;;;;46.75;40.75;;;;;;;;5119943;27;8771;-78
2021/10/14 08:27:57;;;;;;;;;46.25;38.75;;;;;;;;5118090;28;10495;-77
2021/10/14 08:30:22;;;;;;;;;49.00;39.75;;;;;;;;5128401;27;8881;-78
2021/10/14 08:32:50;;;;;;;;;47.75;38.25;;;;;;;;5139328;27;8822;-76
2021/10/14 08:35:15;;;;;;;;;46.75;39.00;;;;;;;;5138889;27;8713;-74
2021/10/14 08:37:41;;;;;;;;;44.75;36.50;;;;;;;;5139161;27;10298;-74
2021/10/14 08:40:06;;;;;;;;;44.75;38.25;;;;;;;;5138927;27;8788;-75
2021/10/14 08:42:32;;;;;;;;;46.00;38.00;;;;;;;;5137531;27;8941;-74
2021/10/14 08:45:00;;;;;;;;;36.25;34.00;;;;;;;;5139193;27;8800;-75
2021/10/14 08:47:26;;;;;;;;;41.00;37.00;;;;;;;;5138954;27;8760;-75
2021/10/14 08:49:51;;;;;;;;;43.50;37.50;;;;;;;;5137188;27;10333;-78
2021/10/14 08:52:16;;;;;;;;;49.00;40.00;;;;;;;;5138126;27;8803;-78
2021/10/14 08:54:42;;;;;;;;;43.00;37.00;;;;;;;;5137769;27;8816;-76
2021/10/14 08:57:08;;;;;;;;;45.50;35.75;;;;;;;;5137771;27;8815;-78
2021/10/14 08:59:33;;;;;;;;;40.75;35.50;;;;;;;;5138198;27;8831;-78
2021/10/14 09:02:08;;;;;;;;;35.50;33.00;;;;;;;;5140341;27;8812;-76
2021/10/14 09:04:35;;;;;;;;;38.75;35.00;;;;;;;;5141274;27;8897;-78
2021/10/14 09:07:14;;;;;;;;;47.00;40.50;;;;;;;;5155247;27;9833;-78
2021/10/14 09:09:40;;;;;;;;;42.75;37.75;;;;;;;;5154976;27;10383;-78
2021/10/14 09:12:06;;;;;;;;;38.75;34.50;;;;;;;;5154228;27;10012;-77
2021/10/14 09:14:31;;;;;;;;;41.25;36.00;;;;;;;;5155557;27;8788;-77
2021/10/14 09:16:57;;;;;;;;;45.75;37.00;;;;;;;;5155195;27;8823;-78
2021/10/14 09:19:23;;;;;;;;;35.75;32.00;;;;;;;;5152519;27;8846;-77
2021/10/14 09:22:01;;;;;;;;;36.75;34.00;;;;;;;;5154736;27;8721;-77
2021/10/14 09:24:28;;;;;;;;;37.00;32.75;;;;;;;;5155110;27;9669;-77
2021/10/14 09:26:54;;;;;;;;;37.67;32.33;;;;;;;;5155031;27;9541;-78
2021/10/14 09:29:20;;;;;;;;;33.67;31.33;;;;;;;;5148185;27;9339;-77
2021/10/14 09:31:59;;;;;;;;;29.33;28.00;;;;;;;;5124411;27;11510;-79
2021/10/14 09:34:25;;;;;;;;;19.00;19.00;;;;;;;;5122514;28;9303;-78
2021/10/14 09:36:51;;;;;;;;;19.00;17.00;;;;;;;;5125564;27;8910;-78
2021/10/14 09:39:16;;;;;;;;;17.00;17.00;;;;;;;;5122789;27;9047;-79
2021/10/14 09:41:43;;;;;;;;;17.00;17.00;;;;;;;;5128088;27;8848;-80
2021/10/14 09:44:18;;;;;;;;;15.25;15.00;;;;;;;;5129632;28;8773;-80
2021/10/14 09:46:48;;;;;;;;;14.75;14.75;;;;;;;;5127774;27;8766;-78
2021/10/14 09:49:19;;;;;;;;;12.50;12.00;;;;;;;;5127003;28;8872;-78
2021/10/14 09:51:45;;;;;;;;;12.75;12.75;;;;;;;;5127613;27;8795;-78
2021/10/14 09:54:10;;;;;;;;;12.33;11.00;;;;;;;;5122902;27;8803;-76
2021/10/14 09:56:35;;;;;;;;;10.33;10.33;;;;;;;;5124663;28;8858;-77
2021/10/14 09:59:04;;;;;;;;;14.00;14.00;;;;;;;;5119981;28;8825;-76
2021/10/14 10:01:34;;;;;;;;;10.75;10.75;;;;;;;;5118376;28;8815;-77
2021/10/14 10:04:00;;;;;;;;;10.75;10.00;;;;;;;;5120313;28;8799;-79
2021/10/14 10:06:26;;;;;;;;;8.00;8.00;;;;;;;;5117643;27;8771;-77
2021/10/14 10:08:53;;;;;;;;;11.50;9.25;;;;;;;;5118426;27;8829;-78
2021/10/14 10:11:20;;;;;;;;;8.75;8.00;;;;;;;;5119805;27;8827;-76
2021/10/14 10:13:48;;;;;;;;;9.25;9.25;;;;;;;;5118032;27;8828;-78
2021/10/14 10:16:17;;;;;;;;;11.00;10.00;;;;;;;;5119085;27;8732;-81
2021/10/14 10:18:44;;;;;;;;;13.00;12.25;;;;;;;;5118889;27;8787;-79
2021/10/14 10:21:29;;;;;;;;;14.75;11.50;;;;;;;;5118767;27;8779;-78
2021/10/14 10:23:54;;;;;;;;;13.50;10.00;;;;;;;;5120273;28;8728;-79
2021/10/14 10:26:38;;;;;;;;;14.33;14.33;;;;;;;;5119830;27;8779;-77
2021/10/14 10:29:16;;;;;;;;;14.00;12.50;;;;;;;;5123921;28;8809;-81
2021/10/14 10:34:48;;;;;;;;;12.50;12.50;;;;;;;;5144710;27;8780;-78
2021/10/14 10:37:21;;;;;;;;;11.75;11.25;;;;;;;;5138800;27;8785;-79
2021/10/14 10:39:56;;;;;;;;;12.75;12.50;;;;;;;;5139049;27;8800;-78
2021/10/14 10:42:34;;;;;;;;;9.25;9.25;;;;;;;;5139418;27;8760;-80
2021/10/14 10:45:13;;;;;;;;;12.00;12.00;;;;;;;;5143685;27;8851;-78
2021/10/14 10:47:38;;;;;;;;;11.50;10.75;;;;;;;;5137239;27;8764;-77
2021/10/14 10:50:05;;;;;;;;;11.00;11.00;;;;;;;;5136805;27;8804;-78
2021/10/14 10:52:34;;;;;;;;;7.50;7.00;;;;;;;;5137405;27;8773;-78
2021/10/14 10:55:00;;;;;;;;;6.00;6.00;;;;;;;;5135903;27;8931;-79
2021/10/14 10:57:44;;;;;;;;;6.00;6.00;;;;;;;;5138073;27;8807;-80
2021/10/14 11:00:21;;;;;;;;;5.75;5.75;;;;;;;;5138969;27;8808;-82
2021/10/14 11:03:23;;;;;;;;;6.75;4.75;;;;;;;;5140928;27;8785;-83
2021/10/14 11:05:59;;;;;;;;;7.00;6.00;;;;;;;;5139979;27;8804;-82
2021/10/14 11:08:42;;;;;;;;;8.50;6.50;;;;;;;;5142710;27;8765;-83
2021/10/14 11:11:17;;;;;;;;;5.50;5.50;;;;;;;;5135767;27;8773;-79
2021/10/14 11:13:44;;;;;;;;;5.75;5.75;;;;;;;;5135690;27;8857;-76
2021/10/14 11:16:11;;;;;;;;;5.75;5.75;;;;;;;;5135668;27;9337;-76
2021/10/14 11:18:37;;;;;;;;;6.25;4.50;;;;;;;;5134962;27;8823;-77
2021/10/14 11:21:04;;;;;;;;;4.00;4.00;;;;;;;;5135388;27;8791;-78
2021/10/14 11:23:30;;;;;;;;;3.50;3.50;;;;;;;;5139263;27;8811;-77
2021/10/14 11:26:00;;;;;;;;;6.00;6.00;;;;;;;;5138392;27;8918;-78
2021/10/14 11:28:25;;;;;;;;;8.00;8.00;;;;;;;;5139380;27;8769;-78
2021/10/14 11:30:53;;;;;;;;;11.67;11.33;;;;;;;;5127531;27;8807;-78
2021/10/14 11:33:35;;;;;;;;;16.25;14.50;;;;;;;;5116203;28;8771;-79
2021/10/14 11:36:02;;;;;;;;;11.25;11.25;;;;;;;;5116387;27;8801;-83
2021/10/14 11:38:28;;;;;;;;;7.75;7.00;;;;;;;;5117284;27;8813;-82
2021/10/14 11:40:54;;;;;;;;;8.50;7.00;;;;;;;;5117693;27;8885;-82
2021/10/14 11:43:24;;;;;;;;;5.00;5.00;;;;;;;;5119553;27;8901;-82
2021/10/14 11:45:49;;;;;;;;;6.75;6.25;;;;;;;;5119649;27;10351;-79
2021/10/14 11:48:31;;;;;;;;;5.67;4.00;;;;;;;;5118092;28;8839;-79
2021/10/14 11:51:04;;;;;;;;;4.50;4.50;;;;;;;;5117690;28;8727;-80
2021/10/14 11:53:29;;;;;;;;;8.50;8.50;;;;;;;;5120455;27;8807;-83
2021/10/14 11:56:04;;;;;;;;;6.00;6.00;;;;;;;;5119443;28;8826;-78
2021/10/14 11:58:29;;;;;;;;;5.25;5.25;;;;;;;;5119363;27;8787;-77
2021/10/14 12:00:56;;;;;;;;;7.33;6.67;;;;;;;;5119477;28;8875;-78
2021/10/14 12:03:21;;;;;;;;;8.00;6.00;;;;;;;;5120540;27;8795;-78
2021/10/14 12:05:47;;;;;;;;;7.00;7.00;;;;;;;;5122783;27;8803;-80
2021/10/14 12:08:13;;;;;;;;;7.33;7.00;;;;;;;;5120648;27;8809;-81
2021/10/14 12:10:46;;;;;;;;;7.00;7.00;;;;;;;;5123311;27;8809;-83
2021/10/14 12:13:14;;;;;;;;;5.50;4.50;;;;;;;;5119013;27;8799;-83
2021/10/14 12:15:40;;;;;;;;;4.75;4.25;;;;;;;;5118973;27;8746;-82
2021/10/14 12:18:06;;;;;;;;;6.00;6.00;;;;;;;;5118995;28;9588;-81
2021/10/14 12:20:31;;;;;;;;;4.50;4.25;;;;;;;;5118666;28;8819;-82
2021/10/14 12:22:58;;;;;;;;;6.00;6.00;;;;;;;;5136268;28;8864;-81
2021/10/14 12:25:26;;;;;;;;;5.25;5.00;;;;;;;;5130366;28;8736;-81
2021/10/14 12:27:51;;;;;;;;;5.25;5.25;;;;;;;;5130497;27;8789;-80
2021/10/14 12:30:23;;;;;;;;;5.00;5.00;;;;;;;;5133489;27;8907;-81
2021/10/14 12:32:48;;;;;;;;;3.25;3.25;;;;;;;;5143891;27;9677;-81
2021/10/14 12:35:14;;;;;;;;;6.00;4.67;;;;;;;;5141209;27;8804;-80
2021/10/14 12:37:39;;;;;;;;;4.00;3.67;;;;;;;;5139876;27;8788;-84
2021/10/14 12:40:16;;;;;;;;;6.33;6.33;;;;;;;;5140323;27;8839;-84
2021/10/14 12:42:55;;;;;;;;;4.00;4.00;;;;;;;;5139594;27;8829;-88
2021/10/14 12:45:29;;;;;;;;;6.50;4.00;;;;;;;;5140720;27;8769;-85
2021/10/14 12:48:08;;;;;;;;;7.75;6.50;;;;;;;;5141788;27;8795;-82
2021/10/14 12:50:54;;;;;;;;;4.50;4.25;;;;;;;;5139289;27;8769;-77
2021/10/14 12:53:19;;;;;;;;;4.75;3.50;;;;;;;;5138959;27;8776;-79
2021/10/14 12:56:01;;;;;;;;;4.00;4.00;;;;;;;;5137774;27;8824;-79
2021/10/14 12:58:26;;;;;;;;;4.25;3.75;;;;;;;;5139644;27;8788;-79
2021/10/14 13:00:59;;;;;;;;;5.33;5.33;;;;;;;;5141380;27;8800;-79
2021/10/14 13:03:24;;;;;;;;;6.00;6.00;;;;;;;;5141000;27;8780;-80
2021/10/14 13:05:49;;;;;;;;;6.00;6.00;;;;;;;;5131072;27;8825;-81
2021/10/14 13:08:14;;;;;;;;;5.00;5.00;;;;;;;;5121531;28;9639;-80
2021/10/14 13:10:40;;;;;;;;;6.33;6.00;;;;;;;;5119931;28;8802;-80
2021/10/14 13:13:05;;;;;;;;;6.67;5.00;;;;;;;;5118690;28;8864;-79
2021/10/14 13:15:30;;;;;;;;;5.00;5.00;;;;;;;;5119219;27;8826;-79
2021/10/14 13:17:57;;;;;;;;;6.00;6.00;;;;;;;;5117938;28;8803;-81
2021/10/14 13:20:22;;;;;;;;;4.25;3.00;;;;;;;;5119357;28;8775;-80
2021/10/14 13:22:47;;;;;;;;;8.00;7.00;;;;;;;;5119141;28;8911;-78
2021/10/14 13:25:13;;;;;;;;;4.67;4.00;;;;;;;;5118529;28;8798;-82
2021/10/14 13:27:38;;;;;;;;;3.00;3.00;;;;;;;;5119449;28;9527;-81
2021/10/14 13:30:03;;;;;;;;;4.00;4.00;;;;;;;;5126185;27;8828;-80
2021/10/14 13:32:28;;;;;;;;;8.00;8.00;;;;;;;;5139647;27;8817;-77
2021/10/14 13:34:54;;;;;;;;;7.00;6.67;;;;;;;;5140435;27;8880;-82
2021/10/14 13:37:20;;;;;;;;;7.00;5.00;;;;;;;;5142947;27;8824;-82
2021/10/14 13:39:46;;;;;;;;;7.00;7.00;;;;;;;;5140272;27;8972;-78
2021/10/14 13:42:12;;;;;;;;;4.50;4.50;;;;;;;;5137857;27;8834;-78
2021/10/14 13:44:37;;;;;;;;;4.33;4.00;;;;;;;;5136559;27;8812;-78
2021/10/14 13:47:02;;;;;;;;;10.00;8.00;;;;;;;;5115633;27;8835;-77
2021/10/14 13:49:28;;;;;;;;;4.00;4.00;;;;;;;;5117602;27;8837;-79
2021/10/14 13:51:53;;;;;;;;;5.00;4.00;;;;;;;;5117203;27;8841;-78
2021/10/14 13:54:18;;;;;;;;;6.33;5.00;;;;;;;;5116000;28;8818;-78
2021/10/14 13:56:44;;;;;;;;;6.00;5.00;;;;;;;;5115538;27;8834;-78
2021/10/14 13:59:09;;;;;;;;;7.67;7.67;;;;;;;;5117102;27;8818;-76
2021/10/14 14:01:34;;;;;;;;;5.33;5.33;;;;;;;;5117617;27;8791;-77
2021/10/14 14:03:59;;;;;;;;;7.33;6.00;;;;;;;;5116479;27;8807;-79
2021/10/14 14:06:32;;;;;;;;;6.33;5.00;;;;;;;;5117850;27;8779;-78
2021/10/14 14:08:58;;;;;;;;;8.00;7.00;;;;;;;;5117443;27;8872;-78
2021/10/14 14:11:23;;;;;;;;;5.67;5.67;;;;;;;;5116304;28;8815;-80
2021/10/14 14:13:49;;;;;;;;;8.33;8.33;;;;;;;;5119165;27;8806;-81
2021/10/14 14:16:14;;;;;;;;;11.33;11.33;;;;;;;;5121325;27;8787;-81
2021/10/14 14:18:39;;;;;;;;;9.00;7.00;;;;;;;;5119221;27;8807;-80
2021/10/14 14:21:06;;;;;;;;;8.00;6.33;;;;;;;;5120075;28;8783;-81
2021/10/14 14:23:31;;;;;;;;;7.50;7.50;;;;;;;;5118889;27;8707;-82
2021/10/14 14:25:56;;;;;;;;;9.00;8.00;;;;;;;;5117944;27;8779;-79
2021/10/14 14:28:22;;;;;;;;;8.00;8.00;;;;;;;;5117297;27;8799;-78
2021/10/14 14:30:47;;;;;;;;;7.67;7.67;;;;;;;;5130406;27;8801;-77
2021/10/14 14:33:14;;;;;;;;;8.00;7.00;;;;;;;;5136352;27;8820;-78
2021/10/14 14:35:40;;;;;;;;;8.25;7.50;;;;;;;;5137239;27;8777;-81